EDHK/KEL METAR and TAF weather

Enter ICAO airport designator
Station Type Date Time Source
EDHK METAR 2021/01/17 19:50 UTC NOAA

EDHK 171950Z AUTO 18008KT 9999 // BKN028/// BKN067/// OVC078/// M01/M05 Q1020


Station Type Date Time Source
EDHK Decoded METAR 2021/01/17 19:50 UTC NOAA

Kiel / Holtenau Civilian, Germany (EDHK) 54-23N 010-10E
Jan 17, 2021 - 02:50 PM EST / 2021.01.17 1950 UTC
Wind: from the S (180 degrees) at 9 MPH (8 KT):0
Visibility: greater than 7 mile(s):0
Sky conditions: overcast
Temperature: 30 F (-1 C)
Windchill: 21 F (-6 C):1
Dew Point: 23 F (-5 C)
Relative Humidity: 74%
Pressure (altimeter): 30.12 in. Hg (1020 hPa)
ob: EDHK 171950Z AUTO 18008KT 9999 // BKN028/// BKN067/// OVC078/// M01/M05 Q1020
cycle: 20

Station Type Date Time Source
EDHK TAF 2013/08/11 06:39 UTC NOAA

TAF EDHK 110633Z 1106/1118 24005KT 9999 SCT030
BECMG 1106/1109 25010KT
TEMPO 1106/1118 27015G25KT 4500 SHRA BKN012CB

Example: see airport list